Evans, Washington
Current Conditions -  °F | °C
As of 8:00 AM on Sunday 21 Dec 2014 (Local Time) from CYCG Reporting Station
Broken Clouds Broken Clouds  
Wind Chill: 36°   Ceiling: 5000
Heat Index: 36°   Visibility: 15mi
Dew Point: 34°   Wind: 0mph
Humidity: 93%   Direction: NA
Pressure: 29.58"   Gusts: NA
Location:  48.71°N, 118.03°W
Report Text: CYCG 211600Z 00000KT 15SM FEW004 FEW030 BKN050 02/01 A2958 RMK SF1SC1SC3 PRESRR SLP032
Loading
Personal Weather Stations






























Interactive Weather Map New forecast layout! Learn more

10-Day Weather Forecast

Advertisements
Track Severe Weather on mobile